createdAt,value
2022-10-02T00:01:17.063Z,98451.63
2022-10-02T00:04:11.322Z,98452.44
2022-10-02T00:07:07.010Z,98456.09
2022-10-02T00:10:01.897Z,98464.75
2022-10-02T00:12:56.481Z,98467.13
2022-10-02T00:15:45.497Z,98473.94
2022-10-02T00:18:38.175Z,98476.59
2022-10-02T00:21:42.265Z,98478.41
2022-10-02T00:24:40.353Z,98484.78
2022-10-02T00:27:55.451Z,98486.31
2022-10-02T00:30:59.827Z,98494.16
2022-10-02T00:34:06.970Z,98482.34
2022-10-02T00:37:09.396Z,98493.88
2022-10-02T00:40:27.380Z,98490.19
2022-10-02T00:43:34.367Z,98493.88
2022-10-02T00:46:46.375Z,98494.03
2022-10-02T00:49:55.006Z,98499.50
2022-10-02T00:53:09.178Z,98492.84
2022-10-02T00:56:16.513Z,98494.00
2022-10-02T00:59:39.596Z,98500.59
2022-10-02T01:03:11.974Z,98493.09
2022-10-02T01:06:01.147Z,98492.72
2022-10-02T01:08:48.944Z,98481.38
2022-10-02T01:11:39.357Z,98498.50
2022-10-02T01:14:34.749Z,98490.28
2022-10-02T01:17:25.594Z,98501.88
2022-10-02T01:20:19.171Z,98504.16
2022-10-02T01:23:21.854Z,98497.78
2022-10-02T01:26:10.928Z,98500.91
2022-10-02T01:28:58.562Z,98501.22
2022-10-02T01:31:57.720Z,98511.00
2022-10-02T01:34:50.735Z,98506.00
2022-10-02T01:37:48.394Z,98501.66
2022-10-02T01:40:41.833Z,98502.41
2022-10-02T01:43:37.457Z,98511.53
2022-10-02T01:46:39.098Z,98516.41
2022-10-02T01:50:03.838Z,98510.09
2022-10-02T01:53:01.991Z,98511.16
2022-10-02T01:56:04.414Z,98504.41
2022-10-02T01:59:06.277Z,98506.59
2022-10-02T02:02:11.792Z,98512.28
2022-10-02T02:05:10.840Z,98507.66
2022-10-02T02:08:09.197Z,98509.31
2022-10-02T02:11:14.532Z,98529.97
2022-10-02T02:14:08.384Z,98523.50
2022-10-02T02:17:08.898Z,98522.69
2022-10-02T02:20:08.310Z,98529.38
2022-10-02T02:23:12.114Z,98523.03
2022-10-02T02:26:07.778Z,98510.28
2022-10-02T02:29:07.154Z,98514.44
2022-10-02T02:32:11.338Z,98515.13
2022-10-02T02:35:45.844Z,98521.09
2022-10-02T02:41:43.782Z,98532.78
2022-10-02T02:44:40.876Z,98529.97
2022-10-02T02:47:37.029Z,98534.53
2022-10-02T02:50:33.328Z,98528.22
2022-10-02T02:53:31.832Z,98542.25
2022-10-02T02:56:24.256Z,98527.53
2022-10-02T02:59:16.633Z,98525.19
2022-10-02T03:02:04.422Z,98527.38
2022-10-02T03:05:03.961Z,98531.06
2022-10-02T03:07:57.359Z,98536.91
2022-10-02T03:11:03.354Z,98524.88
2022-10-02T03:14:11.917Z,98527.09
2022-10-02T03:17:17.711Z,98531.06
2022-10-02T03:20:19.707Z,98519.56
2022-10-02T03:23:24.048Z,98529.94
2022-10-02T03:26:32.628Z,98532.72
2022-10-02T03:29:59.313Z,98537.91
2022-10-02T03:33:01.441Z,98527.25
2022-10-02T03:35:57.699Z,98526.53
2022-10-02T03:39:12.619Z,98523.88
2022-10-02T03:42:03.616Z,98533.88
2022-10-02T03:44:54.478Z,98528.53
2022-10-02T03:47:47.219Z,98539.69
2022-10-02T03:50:43.033Z,98544.22
2022-10-02T03:53:39.286Z,98549.00
2022-10-02T03:56:40.538Z,98541.00
2022-10-02T03:59:46.677Z,98538.19
2022-10-02T04:02:54.037Z,98539.19
2022-10-02T04:05:49.227Z,98538.75
2022-10-02T04:09:04.308Z,98531.59
2022-10-02T04:12:03.396Z,98524.59
2022-10-02T04:14:58.492Z,98517.59
2022-10-02T04:18:02.126Z,98511.41
2022-10-02T04:21:13.845Z,98514.22
2022-10-02T04:24:24.325Z,98523.88
2022-10-02T04:27:35.334Z,98529.03
2022-10-02T04:30:23.970Z,98521.94
2022-10-02T04:33:23.667Z,98522.91
2022-10-02T04:36:38.386Z,98529.78
2022-10-02T04:39:58.239Z,98533.28
2022-10-02T04:43:10.549Z,98534.09
2022-10-02T04:46:21.432Z,98541.44
2022-10-02T04:49:43.617Z,98533.94
2022-10-02T04:53:12.236Z,98538.75
2022-10-02T04:56:45.368Z,98548.94
2022-10-02T05:00:01.505Z,98541.63
2022-10-02T05:03:44.999Z,98542.16
2022-10-02T05:12:11.741Z,98542.97
2022-10-02T05:15:40.127Z,98546.31
2022-10-02T05:19:11.096Z,98550.63
2022-10-02T05:22:47.796Z,98539.97
2022-10-02T05:26:24.673Z,98547.97
2022-10-02T05:29:41.611Z,98545.00
2022-10-02T05:33:16.324Z,98547.66
2022-10-02T05:36:53.244Z,98555.81
2022-10-02T05:39:53.965Z,98546.69
2022-10-02T05:42:58.010Z,98543.03
2022-10-02T05:46:17.577Z,98543.88
2022-10-02T05:49:20.128Z,98542.34
2022-10-02T05:52:17.407Z,98545.00
2022-10-02T05:55:20.204Z,98547.34
2022-10-02T05:58:17.626Z,98551.16
2022-10-02T06:01:21.244Z,98544.69
2022-10-02T06:04:41.313Z,98538.38
2022-10-02T06:07:32.677Z,98542.41
2022-10-02T06:10:31.735Z,98549.38
2022-10-02T06:13:33.655Z,98538.56
2022-10-02T06:16:29.464Z,98539.41
2022-10-02T06:19:28.117Z,98543.75
2022-10-02T06:22:20.921Z,98549.75
2022-10-02T06:25:17.192Z,98551.75
2022-10-02T06:28:16.674Z,98549.75
2022-10-02T06:31:13.875Z,98549.13
2022-10-02T06:34:02.896Z,98548.28
2022-10-02T06:37:20.810Z,98542.63
2022-10-02T06:40:51.806Z,98554.00
2022-10-02T06:44:09.796Z,98554.81
2022-10-02T06:47:29.335Z,98545.47
2022-10-02T06:50:44.314Z,98547.50
2022-10-02T06:53:55.904Z,98540.22
2022-10-02T06:57:05.751Z,98542.41
2022-10-02T07:00:12.518Z,98539.25
2022-10-02T07:03:35.551Z,98545.91
2022-10-02T07:06:45.734Z,98549.75
2022-10-02T07:10:02.976Z,98554.59
2022-10-02T07:13:21.411Z,98554.59
2022-10-02T07:16:34.887Z,98552.59
2022-10-02T07:20:02.513Z,98572.63
2022-10-02T07:23:18.934Z,98562.63
2022-10-02T07:26:28.682Z,98555.47
2022-10-02T07:29:42.363Z,98558.63
2022-10-02T07:32:50.497Z,98555.63
2022-10-02T07:36:09.513Z,98567.84
2022-10-02T07:39:34.717Z,98570.34
2022-10-02T07:42:58.131Z,98565.50
2022-10-02T07:45:59.218Z,98566.03
2022-10-02T07:49:19.145Z,98560.38
2022-10-02T07:53:16.502Z,98556.53
2022-10-02T08:04:17.463Z,98568.38
2022-10-02T08:07:09.433Z,98573.38
2022-10-02T08:10:11.949Z,98562.88
2022-10-02T08:13:16.376Z,98571.41
2022-10-02T08:16:07.762Z,98569.38
2022-10-02T08:19:01.874Z,98566.72
2022-10-02T08:21:57.246Z,98566.41
2022-10-02T08:24:53.272Z,98562.59
2022-10-02T08:27:54.857Z,98569.44
2022-10-02T08:30:44.062Z,98570.09
2022-10-02T08:33:33.480Z,98566.44
2022-10-02T08:37:08.807Z,98558.28
2022-10-02T08:40:51.546Z,98569.78
2022-10-02T08:44:39.892Z,98564.13
2022-10-02T08:48:06.627Z,98552.44
2022-10-02T08:52:00.114Z,98551.09
2022-10-02T08:55:32.720Z,98551.94
2022-10-02T08:59:13.530Z,98549.13
2022-10-02T09:02:58.136Z,98546.31
2022-10-02T09:06:38.810Z,98545.13
2022-10-02T09:10:20.767Z,98544.13
2022-10-02T09:14:10.094Z,98541.13
2022-10-02T09:17:25.068Z,98542.16
2022-10-02T09:21:12.063Z,98540.16
2022-10-02T09:24:55.381Z,98544.16
2022-10-02T09:28:47.153Z,98547.47
2022-10-02T09:32:18.777Z,98545.47
2022-10-02T09:35:36.955Z,98544.63
2022-10-02T09:39:16.510Z,98551.31
2022-10-02T09:42:45.975Z,98544.81
2022-10-02T09:46:35.792Z,98548.16
2022-10-02T09:50:18.650Z,98545.47
2022-10-02T09:54:22.216Z,98555.16
2022-10-02T09:57:55.714Z,98549.81
2022-10-02T10:01:15.202Z,98546.16
2022-10-02T10:05:04.388Z,98547.66
2022-10-02T10:08:34.783Z,98537.50
2022-10-02T10:12:32.824Z,98535.31
2022-10-02T10:16:25.769Z,98529.47
2022-10-02T10:20:00.818Z,98530.31
2022-10-02T10:23:43.307Z,98534.66
2022-10-02T10:27:24.332Z,98533.47
2022-10-02T10:31:11.131Z,98528.13
2022-10-02T10:34:50.929Z,98520.75
2022-10-02T10:38:35.357Z,98517.13
2022-10-02T10:42:37.704Z,98512.41
2022-10-02T10:46:06.250Z,98514.09
2022-10-02T10:50:03.517Z,98514.28
2022-10-02T10:53:31.781Z,98523.09
2022-10-02T10:56:38.237Z,98526.63
2022-10-02T11:00:19.523Z,98526.13
2022-10-02T11:03:58.514Z,98524.75
2022-10-02T11:07:23.067Z,98524.75
2022-10-02T11:10:34.829Z,98518.44
2022-10-02T11:13:57.919Z,98512.75
2022-10-02T11:17:42.584Z,98512.38
2022-10-02T11:21:07.062Z,98517.72
2022-10-02T11:24:32.702Z,98515.06
2022-10-02T11:27:48.406Z,98523.75
2022-10-02T11:30:53.672Z,98520.06
2022-10-02T11:34:20.047Z,98523.91
2022-10-02T11:37:31.799Z,98525.91
2022-10-02T11:40:47.595Z,98527.09
2022-10-02T11:44:01.243Z,98528.25
2022-10-02T11:47:28.293Z,98527.91
2022-10-02T11:50:57.209Z,98529.94
2022-10-02T11:54:33.943Z,98532.44
2022-10-02T11:57:50.934Z,98527.75
2022-10-02T12:01:19.985Z,98525.41
2022-10-02T12:04:44.666Z,98514.09
2022-10-02T12:07:52.144Z,98508.06
2022-10-02T12:10:54.260Z,98500.06
2022-10-02T12:14:19.455Z,98498.38
2022-10-02T12:17:33.705Z,98501.06
2022-10-02T12:20:57.256Z,98508.41
2022-10-02T12:24:20.075Z,98502.06
2022-10-02T12:27:24.537Z,98496.38
2022-10-02T12:30:22.323Z,98491.03
2022-10-02T12:33:37.672Z,98492.53
2022-10-02T12:36:47.387Z,98483.50
2022-10-02T12:39:54.837Z,98495.69
2022-10-02T12:43:41.973Z,98499.19
2022-10-02T12:47:21.079Z,98501.88
2022-10-02T12:50:24.347Z,98508.53
2022-10-02T12:53:55.210Z,98511.03
2022-10-02T12:57:39.245Z,98517.22
2022-10-02T13:00:50.532Z,98521.38
2022-10-02T13:04:27.210Z,98520.75
2022-10-02T13:07:58.926Z,98512.56
2022-10-02T13:10:58.093Z,98519.56
2022-10-02T13:14:27.782Z,98524.06
2022-10-02T13:17:35.938Z,98514.03
2022-10-02T13:20:41.160Z,98518.38
2022-10-02T13:23:41.972Z,98518.38
2022-10-02T13:26:49.038Z,98520.03
2022-10-02T13:29:52.364Z,98512.69
2022-10-02T13:32:58.387Z,98514.34
2022-10-02T13:36:09.334Z,98500.81
2022-10-02T13:39:23.379Z,98502.34
2022-10-02T13:42:37.162Z,98491.13
2022-10-02T13:45:35.499Z,98493.63
2022-10-02T13:48:42.800Z,98488.97
2022-10-02T13:51:46.156Z,98495.97
2022-10-02T13:54:57.661Z,98496.81
2022-10-02T13:58:36.460Z,98492.97
2022-10-02T14:01:42.478Z,98493.63
2022-10-02T14:05:02.229Z,98486.41
2022-10-02T14:08:14.317Z,98478.41
2022-10-02T14:11:20.054Z,98484.94
2022-10-02T14:14:31.870Z,98480.25
2022-10-02T14:17:35.859Z,98474.75
2022-10-02T14:20:40.376Z,98477.22
2022-10-02T14:23:55.861Z,98482.56
2022-10-02T14:27:01.983Z,98482.56
2022-10-02T14:30:04.314Z,98470.88
2022-10-02T14:33:05.639Z,98471.69
2022-10-02T14:36:07.208Z,98472.72
2022-10-02T14:39:22.092Z,98478.41
2022-10-02T14:42:41.324Z,98479.59
2022-10-02T14:46:21.830Z,98479.94
2022-10-02T14:50:03.830Z,98488.97
2022-10-02T14:53:18.317Z,98488.13
2022-10-02T14:56:46.997Z,98487.28
2022-10-02T15:00:05.366Z,98482.94
2022-10-02T15:03:33.707Z,98489.47
2022-10-02T15:06:57.447Z,98500.34
2022-10-02T15:10:15.838Z,98505.69
2022-10-02T15:13:11.423Z,98499.66
2022-10-02T15:16:38.396Z,98506.03
2022-10-02T15:19:36.715Z,98506.19
2022-10-02T15:22:35.806Z,98513.72
2022-10-02T15:26:02.269Z,98517.72
2022-10-02T15:29:08.856Z,98509.88
2022-10-02T15:32:36.518Z,98507.38
2022-10-02T15:35:55.328Z,98514.56
2022-10-02T15:39:23.647Z,98523.75
2022-10-02T15:42:36.098Z,98508.91
2022-10-02T15:46:12.196Z,98508.41
2022-10-02T15:49:23.874Z,98502.41
2022-10-02T15:52:37.450Z,98509.91
2022-10-02T15:55:39.030Z,98512.09
2022-10-02T15:58:58.308Z,98509.09
2022-10-02T16:02:03.967Z,98510.28
2022-10-02T16:05:09.346Z,98499.09
2022-10-02T16:08:39.881Z,98500.44
2022-10-02T16:11:59.545Z,98505.28
2022-10-02T16:15:08.827Z,98516.44
2022-10-02T16:18:41.989Z,98523.13
2022-10-02T16:22:17.800Z,98519.94
2022-10-02T16:25:33.900Z,98514.13
2022-10-02T16:28:49.908Z,98520.13
2022-10-02T16:32:01.067Z,98512.47
2022-10-02T16:35:17.700Z,98519.47
2022-10-02T16:38:18.977Z,98525.09
2022-10-02T16:41:32.150Z,98534.41
2022-10-02T16:44:50.684Z,98534.09
2022-10-02T16:47:50.326Z,98533.56
2022-10-02T16:51:11.497Z,98535.91
2022-10-02T16:54:15.564Z,98549.75
2022-10-02T16:57:20.444Z,98557.38
2022-10-02T17:00:17.152Z,98560.53
2022-10-02T17:03:21.697Z,98561.03
2022-10-02T17:06:26.693Z,98566.03
2022-10-02T17:09:28.664Z,98572.53
2022-10-02T17:12:26.528Z,98583.84
2022-10-02T17:15:23.937Z,98591.47
2022-10-02T17:18:28.006Z,98587.63
2022-10-02T17:21:25.919Z,98601.28
2022-10-02T17:24:36.524Z,98610.59
2022-10-02T17:27:45.253Z,98618.06
2022-10-02T17:30:58.058Z,98626.53
2022-10-02T17:34:02.448Z,98620.69
2022-10-02T17:37:03.962Z,98625.50
2022-10-02T17:40:13.921Z,98633.63
2022-10-02T17:43:14.869Z,98634.81
2022-10-02T17:46:49.359Z,98642.41
2022-10-02T17:49:57.777Z,98648.75
2022-10-02T17:53:06.895Z,98649.91
2022-10-02T17:56:34.852Z,98659.03
2022-10-02T17:59:53.323Z,98662.00
2022-10-02T18:03:32.252Z,98659.94
2022-10-02T18:06:41.906Z,98660.66
2022-10-02T18:09:53.827Z,98653.50
2022-10-02T18:13:14.801Z,98657.28
2022-10-02T18:16:28.728Z,98663.63
2022-10-02T18:19:32.353Z,98665.44
2022-10-02T18:23:03.691Z,98670.25
2022-10-02T18:26:19.478Z,98686.41
2022-10-02T18:29:37.028Z,98692.88
2022-10-02T18:32:50.097Z,98698.50
2022-10-02T18:35:55.075Z,98711.13
2022-10-02T18:38:59.558Z,98707.47
2022-10-02T18:42:41.296Z,98710.59
2022-10-02T18:45:45.401Z,98710.75
2022-10-02T18:48:56.674Z,98717.38
2022-10-02T18:52:24.690Z,98718.38
2022-10-02T18:55:42.950Z,98728.31
2022-10-02T18:58:52.630Z,98717.97
2022-10-02T19:02:02.086Z,98722.75
2022-10-02T19:05:17.152Z,98725.72
2022-10-02T19:08:22.682Z,98727.53
2022-10-02T19:11:19.745Z,98729.19
2022-10-02T19:14:16.458Z,98733.72
2022-10-02T19:17:09.042Z,98732.16
2022-10-02T19:19:58.928Z,98741.28
2022-10-02T19:22:47.674Z,98756.44
2022-10-02T19:25:36.403Z,98760.22
2022-10-02T19:28:30.555Z,98763.03
2022-10-02T19:31:26.901Z,98758.88
2022-10-02T19:34:21.132Z,98760.69
2022-10-02T19:37:12.906Z,98763.50
2022-10-02T19:40:04.409Z,98767.31
2022-10-02T19:43:01.707Z,98766.59
2022-10-02T19:45:57.209Z,98773.91
2022-10-02T19:48:46.057Z,98777.53
2022-10-02T19:51:45.344Z,98780.53
2022-10-02T19:54:40.354Z,98796.94
2022-10-02T19:57:41.773Z,98801.72
2022-10-02T20:00:32.189Z,98811.66
2022-10-02T20:03:27.051Z,98805.66
2022-10-02T20:06:21.123Z,98808.47
2022-10-02T20:09:20.602Z,98819.25
2022-10-02T20:12:16.727Z,98816.19
2022-10-02T20:15:15.570Z,98817.47
2022-10-02T20:18:02.366Z,98816.91
2022-10-02T20:20:57.520Z,98822.66
2022-10-02T20:23:57.706Z,98826.31
2022-10-02T20:26:48.312Z,98829.28
2022-10-02T20:29:46.941Z,98833.22
2022-10-02T20:32:42.284Z,98835.16
2022-10-02T20:35:37.945Z,98832.13
2022-10-02T20:38:33.748Z,98832.41
2022-10-02T20:41:27.693Z,98829.03
2022-10-02T20:44:15.451Z,98838.31
2022-10-02T20:47:59.539Z,98829.09
2022-10-02T20:51:06.669Z,98834.69
2022-10-02T20:54:32.979Z,98835.13
2022-10-02T20:58:01.812Z,98844.22
2022-10-02T21:01:16.863Z,98857.66
2022-10-02T21:05:02.857Z,98863.25
2022-10-02T21:08:40.379Z,98859.91
2022-10-02T21:12:10.787Z,98869.81
2022-10-02T21:15:29.311Z,98876.13
2022-10-02T21:18:58.124Z,98880.72
2022-10-02T21:22:37.625Z,98887.31
2022-10-02T21:26:26.812Z,98890.25
2022-10-02T21:29:48.492Z,98888.88
2022-10-02T21:32:56.470Z,98902.44
2022-10-02T21:35:56.282Z,98900.91
2022-10-02T21:39:32.648Z,98909.97
2022-10-02T21:43:17.875Z,98906.91
2022-10-02T21:47:04.240Z,98914.16
2022-10-02T21:50:50.138Z,98926.50
2022-10-02T21:54:43.913Z,98924.53
2022-10-02T21:58:48.981Z,98920.91
2022-10-02T22:02:20.290Z,98922.44
2022-10-02T22:05:53.349Z,98925.09
2022-10-02T22:09:12.593Z,98922.31
2022-10-02T22:12:24.114Z,98929.56
2022-10-02T22:15:22.285Z,98926.75
2022-10-02T22:18:27.653Z,98932.22
2022-10-02T22:21:52.106Z,98933.22
2022-10-02T22:25:12.117Z,98942.16
2022-10-02T22:28:20.213Z,98926.50
2022-10-02T22:31:54.536Z,98937.41
2022-10-02T22:34:58.816Z,98942.00
2022-10-02T22:38:09.859Z,98944.94
2022-10-02T22:41:08.237Z,98944.22
2022-10-02T22:44:01.717Z,98953.88
2022-10-02T22:46:57.793Z,98948.56
2022-10-02T22:49:53.225Z,98960.28
2022-10-02T22:52:52.249Z,98966.59
2022-10-02T22:55:52.504Z,98963.09
2022-10-02T22:58:48.773Z,98966.84
2022-10-02T23:01:47.597Z,98974.00
2022-10-02T23:04:44.940Z,98972.31
2022-10-02T23:07:47.754Z,98965.28
2022-10-02T23:10:46.916Z,98968.09
2022-10-02T23:13:45.233Z,98971.59
2022-10-02T23:16:41.080Z,98970.16
2022-10-02T23:19:41.132Z,98974.78
2022-10-02T23:22:34.621Z,98976.00
2022-10-02T23:25:33.859Z,98981.47
2022-10-02T23:28:29.490Z,98976.28
2022-10-02T23:31:23.966Z,98987.75
2022-10-02T23:34:24.404Z,98994.88
2022-10-02T23:37:22.521Z,98984.56
2022-10-02T23:40:46.727Z,98984.81
2022-10-02T23:43:46.960Z,98989.41
2022-10-02T23:47:01.544Z,98993.72
2022-10-02T23:49:54.242Z,99000.03
2022-10-02T23:53:12.687Z,99004.50
2022-10-02T23:56:27.775Z,99002.09
2022-10-02T23:59:40.115Z,99003.34
